Livingston, KY (40445)

5:18 PM EST on December 28, 2014 (GMT -0500)
Denny Subdivision | Change Station
CLOSE
Current Station
Personal Weather Station
Location: Mount Vernon, KY
Elevation: 1181 ft
Nearby Weather Stations

Elev 1181 ft 37.31 °N, 84.39 °W | Updated 1 second ago

Overcast
Overcast
38.1 °F
Feels Like 36 °F
N
3.1
Wind Variable Wind from NW
Gusts 9.0 mph

Today
High -- | Low -- °F
--% Chance of Precip.
Yesterday
High -- | Low -- °F
Precip. -- in
7:50 AM 5:27 PM
First Quarter, 52% visible
Pressure 30.11 in
Visibility 10.0 miles
Clouds Mostly Cloudy 800 ft
Mostly Cloudy 1200 ft
Overcast 1700 ft
Windchill 36 °F
Dew Point 38 °F
Humidity 98%
Rainfall 0.22 in
Snow Depth Not available.
UV 0 out of 12
Pollen .10 out of 12
Air Quality Not available.
Flu Activity Not available.
METAR KLOZ 282153Z AUTO 36006KT 10SM -RA BKN008 BKN012 OVC017 06/03 A3010 RMK AO2 CIG 005V009 SLP195 P0001 T00610033

More Conditions Fewer Conditions

Pressure 30.11 in
Visibility 10.0 miles
Clouds Mostly Cloudy 800 ft
Mostly Cloudy 1200 ft
Overcast 1700 ft
Windchill 36 °F
Dew Point 38 °F
Humidity 98%
Rainfall 0.22 in
Snow Depth Not available.
UV 0 out of 12
Pollen .10 out of 12
Air Quality Not available.
Flu Activity Not available.
METAR KLOZ 282153Z AUTO 36006KT 10SM -RA BKN008 BKN012 OVC017 06/03 A3010 RMK AO2 CIG 005V009 SLP195 P0001 T00610033

More Conditions Fewer Conditions

10-Day Weather Forecast

Almanac

Astronomy

Dec. 28, 2014 Rise Set
Actual Time
Civil Twilight
Nautical Twilight
Astronomical Twilight
Moon
Length of Visible Light
Length of Day
Tomorrow will be .
, % of the Moon is Illuminated

Today's Extremes

State Highs State Lows

Community

WunderPhotos

Upload Photos

1,781,444 photos uploaded!

WunderBlogs® & News

Nearby

Air Quality

  Air Quality AQ Index Pollutant
Not available.

Snow Depth

Station Depth Elevation

Earthquake Activity

City Distance Mag. Time & Date
Minimum magnitude displayed is 2.5.

Coastal Water Temperatures

Place Temperature

Nearby Weather Stations